Terminal Aerodrome Forecast
Issued by NWS

Home | Current Version | Previous Version | Text Only | Print | Product List | Glossary On
Versions: 1 2 3 4 5 6 7 8 9 10 11 12 13 14 15 16 17 18 19 20 21 22 23
000
FTUS46 KMTR 190500
TAFSFO
TAF
KSFO 190535Z 1906/2012 25010KT P6SM SCT045 BKN050
     FM190800 27005KT P6SM FEW008 BKN015
      TEMPO 1910/1914 5SM BR BKN008 OVC011
     FM191900 29014KT P6SM SCT030
     FM200400 29009KT P6SM SCT030=

USA.gov is the U.S. government's official web portal to all federal, state and local government web resources and services.